createdAt,value
2018-06-17T00:00:16.077Z,20.91
2018-06-17T00:02:48.839Z,20.83
2018-06-17T00:05:29.065Z,20.78
2018-06-17T00:08:02.627Z,20.66
2018-06-17T00:10:35.727Z,20.58
2018-06-17T00:13:09.904Z,20.50
2018-06-17T00:15:41.904Z,20.37
2018-06-17T00:18:12.135Z,20.35
2018-06-17T00:20:43.406Z,20.30
2018-06-17T00:23:15.679Z,20.37
2018-06-17T00:25:48.646Z,20.32
2018-06-17T00:28:19.530Z,20.33
2018-06-17T00:30:52.836Z,20.32
2018-06-17T00:33:23.564Z,20.35
2018-06-17T00:35:55.191Z,20.34
2018-06-17T00:38:28.445Z,20.26
2018-06-17T00:40:58.926Z,20.26
2018-06-17T00:43:29.858Z,20.24
2018-06-17T00:46:00.938Z,20.15
2018-06-17T00:48:33.470Z,20.20
2018-06-17T00:51:03.647Z,20.15
2018-06-17T00:53:34.819Z,20.10
2018-06-17T00:56:21.820Z,20.08
2018-06-17T00:58:53.817Z,20.06
2018-06-17T01:01:24.536Z,20.07
2018-06-17T01:03:55.371Z,20.06
2018-06-17T01:06:28.207Z,19.95
2018-06-17T01:09:03.053Z,19.84
2018-06-17T01:11:36.608Z,19.82
2018-06-17T01:14:09.049Z,19.78
2018-06-17T01:16:41.179Z,19.75
2018-06-17T01:19:12.546Z,19.70
2018-06-17T01:21:43.708Z,19.41
2018-06-17T01:24:15.796Z,19.70
2018-06-17T01:26:46.176Z,19.68
2018-06-17T01:29:16.820Z,19.66
2018-06-17T01:31:47.725Z,19.47
2018-06-17T01:34:19.790Z,19.38
2018-06-17T01:36:51.090Z,19.39
2018-06-17T01:39:22.571Z,19.38
2018-06-17T01:41:56.022Z,19.40
2018-06-17T01:44:28.586Z,19.36
2018-06-17T01:46:59.832Z,19.38
2018-06-17T01:49:31.653Z,19.33
2018-06-17T01:52:02.091Z,19.37
2018-06-17T01:54:33.001Z,19.42
2018-06-17T01:57:07.287Z,19.31
2018-06-17T01:59:49.831Z,19.26
2018-06-17T02:02:22.345Z,19.25
2018-06-17T02:05:00.550Z,19.16
2018-06-17T02:07:39.606Z,19.22
2018-06-17T02:10:15.613Z,19.10
2018-06-17T02:12:47.654Z,19.24
2018-06-17T02:15:19.894Z,19.21
2018-06-17T02:17:50.320Z,19.28
2018-06-17T02:20:25.750Z,19.36
2018-06-17T02:22:59.885Z,19.26
2018-06-17T02:25:31.330Z,19.29
2018-06-17T02:28:03.502Z,19.19
2018-06-17T02:30:40.002Z,19.22
2018-06-17T02:33:12.851Z,19.12
2018-06-17T02:35:44.516Z,18.28
2018-06-17T02:38:15.221Z,19.18
2018-06-17T02:40:45.915Z,19.01
2018-06-17T02:43:20.039Z,19.02
2018-06-17T02:45:55.937Z,18.77
2018-06-17T02:48:31.885Z,19.01
2018-06-17T02:53:10.777Z,19.12
2018-06-17T02:55:45.385Z,19.35
2018-06-17T02:58:21.487Z,19.15
2018-06-17T03:00:55.706Z,19.01
2018-06-17T03:03:28.442Z,19.20
2018-06-17T03:05:59.464Z,19.11
2018-06-17T03:08:36.827Z,19.12
2018-06-17T03:11:08.491Z,19.12
2018-06-17T03:13:41.428Z,18.98
2018-06-17T03:16:13.790Z,19.07
2018-06-17T03:18:50.354Z,18.87
2018-06-17T03:21:20.721Z,18.99
2018-06-17T03:23:52.581Z,18.81
2018-06-17T03:26:30.417Z,18.94
2018-06-17T03:29:06.528Z,19.04
2018-06-17T03:31:44.215Z,19.18
2018-06-17T03:34:15.106Z,19.14
2018-06-17T03:36:45.438Z,19.12
2018-06-17T03:39:16.544Z,19.03
2018-06-17T03:41:46.977Z,18.82
2018-06-17T03:44:17.942Z,18.88
2018-06-17T03:46:50.691Z,19.05
2018-06-17T03:49:29.568Z,19.14
2018-06-17T03:52:01.285Z,19.16
2018-06-17T03:54:32.800Z,19.17
2018-06-17T03:57:03.630Z,19.12
2018-06-17T03:59:36.097Z,19.23
2018-06-17T04:02:07.651Z,19.04
2018-06-17T04:04:43.658Z,18.91
2018-06-17T04:07:14.054Z,19.03
2018-06-17T04:09:45.194Z,19.15
2018-06-17T04:12:16.200Z,19.22
2018-06-17T04:14:48.548Z,19.23
2018-06-17T04:17:21.559Z,19.38
2018-06-17T04:19:52.476Z,19.30
2018-06-17T04:22:23.821Z,19.24
2018-06-17T04:24:55.298Z,19.26
2018-06-17T04:27:27.092Z,18.99
2018-06-17T04:29:57.923Z,18.80
2018-06-17T04:32:31.650Z,18.97
2018-06-17T04:35:02.386Z,19.22
2018-06-17T04:37:36.598Z,19.40
2018-06-17T04:40:10.593Z,19.15
2018-06-17T04:42:41.584Z,19.53
2018-06-17T04:45:14.247Z,19.63
2018-06-17T04:47:45.137Z,19.65
2018-06-17T04:50:15.534Z,19.74
2018-06-17T04:52:46.685Z,19.58
2018-06-17T04:55:17.394Z,19.74
2018-06-17T04:57:48.057Z,19.98
2018-06-17T05:00:18.925Z,20.07
2018-06-17T05:02:49.137Z,19.80
2018-06-17T05:05:19.593Z,19.81
2018-06-17T05:07:50.540Z,19.84
2018-06-17T05:10:21.482Z,20.02
2018-06-17T05:12:52.492Z,18.60
2018-06-17T05:15:24.757Z,20.34
2018-06-17T05:17:55.971Z,20.20
2018-06-17T05:20:26.427Z,20.17
2018-06-17T05:22:57.752Z,20.04
2018-06-17T05:25:28.706Z,20.64
2018-06-17T05:27:59.948Z,21.05
2018-06-17T05:30:30.341Z,21.27
2018-06-17T05:33:02.799Z,21.13
2018-06-17T05:35:34.738Z,21.04
2018-06-17T05:38:06.673Z,21.23
2018-06-17T05:40:40.033Z,21.16
2018-06-17T05:43:11.081Z,20.85
2018-06-17T05:45:43.376Z,21.03
2018-06-17T05:48:13.787Z,21.42
2018-06-17T05:50:44.825Z,21.59
2018-06-17T05:53:16.273Z,21.71
2018-06-17T05:55:47.760Z,21.84
2018-06-17T05:58:18.676Z,21.77
2018-06-17T06:00:50.713Z,22.06
2018-06-17T06:03:20.898Z,22.04
2018-06-17T06:05:53.255Z,22.02
2018-06-17T06:08:26.900Z,22.35
2018-06-17T06:10:58.923Z,22.62
2018-06-17T06:13:29.761Z,22.73
2018-06-17T06:16:00.300Z,22.32
2018-06-17T06:18:30.708Z,22.44
2018-06-17T06:21:01.605Z,22.08
2018-06-17T06:23:34.186Z,21.82
2018-06-17T06:26:05.342Z,21.92
2018-06-17T06:28:35.989Z,22.23
2018-06-17T06:31:06.657Z,22.17
2018-06-17T06:33:37.636Z,22.05
2018-06-17T06:36:11.904Z,22.49
2018-06-17T06:38:46.698Z,23.03
2018-06-17T06:41:18.649Z,23.23
2018-06-17T06:43:50.965Z,23.06
2018-06-17T06:46:22.034Z,23.25
2018-06-17T06:48:54.432Z,23.27
2018-06-17T06:51:25.645Z,23.05
2018-06-17T06:53:56.576Z,23.10
2018-06-17T06:56:30.477Z,23.03
2018-06-17T06:59:01.829Z,22.84
2018-06-17T07:01:44.253Z,23.03
2018-06-17T07:04:25.442Z,22.87
2018-06-17T07:07:07.210Z,22.96
2018-06-17T07:09:48.263Z,22.90
2018-06-17T07:12:20.568Z,22.93
2018-06-17T07:14:52.101Z,22.76
2018-06-17T07:17:36.590Z,22.40
2018-06-17T07:20:07.045Z,22.08
2018-06-17T07:22:37.141Z,21.93
2018-06-17T07:27:22.073Z,21.73
2018-06-17T07:29:52.833Z,21.82
2018-06-17T07:32:27.091Z,22.04
2018-06-17T07:35:00.244Z,22.05
2018-06-17T07:37:30.654Z,22.11
2018-06-17T07:41:04.091Z,21.98
2018-06-17T07:43:39.146Z,21.95
2018-06-17T07:46:18.845Z,22.08
2018-06-17T07:49:57.981Z,22.21
2018-06-17T07:52:45.517Z,22.49
2018-06-17T07:55:18.342Z,22.62
2018-06-17T07:57:52.966Z,22.52
2018-06-17T08:00:26.587Z,22.30
2018-06-17T08:02:59.653Z,22.12
2018-06-17T08:05:32.617Z,22.23
2018-06-17T08:08:08.243Z,22.55
2018-06-17T08:10:39.325Z,22.01
2018-06-17T08:13:10.645Z,22.33
2018-06-17T08:15:41.877Z,22.22
2018-06-17T08:18:14.933Z,22.01
2018-06-17T08:20:48.551Z,21.96
2018-06-17T08:23:24.684Z,21.97
2018-06-17T08:26:02.320Z,21.97
2018-06-17T08:28:41.181Z,22.01
2018-06-17T08:31:13.559Z,22.15
2018-06-17T08:33:47.409Z,22.25
2018-06-17T08:36:20.941Z,22.70
2018-06-17T08:38:51.808Z,23.07
2018-06-17T08:41:25.600Z,23.44
2018-06-17T08:44:09.908Z,23.57
2018-06-17T08:46:44.073Z,23.69
2018-06-17T08:49:16.188Z,23.96
2018-06-17T08:51:49.376Z,24.01
2018-06-17T08:54:22.464Z,23.51
2018-06-17T08:56:57.943Z,23.53
2018-06-17T08:59:29.693Z,23.73
2018-06-17T09:02:01.389Z,23.36
2018-06-17T09:04:36.460Z,23.21
2018-06-17T09:07:10.781Z,23.00
2018-06-17T09:09:44.781Z,23.00
2018-06-17T09:12:15.412Z,22.95
2018-06-17T09:14:49.492Z,23.49
2018-06-17T09:17:21.049Z,23.79
2018-06-17T09:19:51.388Z,23.77
2018-06-17T09:22:30.596Z,23.90
2018-06-17T09:25:02.396Z,23.60
2018-06-17T09:27:38.148Z,23.72
2018-06-17T09:30:13.613Z,23.66
2018-06-17T09:32:50.104Z,23.53
2018-06-17T09:35:24.153Z,23.47
2018-06-17T09:38:01.350Z,23.66
2018-06-17T09:40:38.080Z,23.32
2018-06-17T09:43:14.319Z,23.59
2018-06-17T09:45:47.579Z,23.42
2018-06-17T09:48:19.374Z,23.45
2018-06-17T09:50:54.846Z,23.50
2018-06-17T09:53:26.020Z,23.27
2018-06-17T09:55:58.057Z,23.13
2018-06-17T09:58:29.891Z,22.90
2018-06-17T10:01:02.998Z,22.85
2018-06-17T10:03:38.500Z,22.73
2018-06-17T10:06:09.676Z,22.75
2018-06-17T10:08:39.870Z,22.94
2018-06-17T10:11:10.485Z,22.83
2018-06-17T10:13:50.119Z,22.91
2018-06-17T10:16:21.741Z,23.06
2018-06-17T10:18:56.742Z,23.33
2018-06-17T10:21:30.040Z,23.25
2018-06-17T10:24:05.616Z,23.60
2018-06-17T10:26:40.151Z,23.56
2018-06-17T10:29:11.019Z,23.91
2018-06-17T10:31:45.373Z,23.84
2018-06-17T10:34:16.693Z,23.97
2018-06-17T10:36:49.403Z,23.95
2018-06-17T10:39:23.366Z,23.86
2018-06-17T10:42:00.506Z,23.44
2018-06-17T10:44:37.084Z,23.14
2018-06-17T10:47:13.336Z,23.05
2018-06-17T10:49:46.779Z,22.75
2018-06-17T10:52:23.486Z,22.80
2018-06-17T10:54:55.222Z,22.71
2018-06-17T10:57:29.879Z,22.96
2018-06-17T11:00:04.623Z,23.32
2018-06-17T11:02:37.736Z,23.70
2018-06-17T11:05:08.890Z,24.07
2018-06-17T11:07:41.312Z,24.42
2018-06-17T11:10:15.503Z,24.76
2018-06-17T11:12:53.880Z,24.74
2018-06-17T11:15:26.140Z,24.86
2018-06-17T11:17:58.852Z,24.69
2018-06-17T11:20:32.028Z,24.46
2018-06-17T11:23:11.652Z,24.39
2018-06-17T11:25:43.782Z,24.01
2018-06-17T11:28:18.511Z,23.82
2018-06-17T11:30:49.366Z,23.92
2018-06-17T11:33:22.821Z,24.06
2018-06-17T11:35:58.489Z,24.29
2018-06-17T11:38:34.514Z,24.22
2018-06-17T11:41:21.167Z,24.01
2018-06-17T11:44:00.277Z,24.03
2018-06-17T11:46:39.312Z,24.12
2018-06-17T11:49:12.603Z,23.77
2018-06-17T11:51:48.261Z,23.31
2018-06-17T11:54:23.913Z,23.41
2018-06-17T11:56:55.270Z,23.30
2018-06-17T11:59:27.504Z,23.21
2018-06-17T12:02:00.647Z,22.95
2018-06-17T12:04:37.459Z,22.68
2018-06-17T12:07:10.307Z,22.53
2018-06-17T12:09:41.800Z,22.78
2018-06-17T12:12:15.170Z,22.95
2018-06-17T12:14:50.750Z,22.84
2018-06-17T12:17:23.636Z,22.50
2018-06-17T12:19:58.719Z,22.63
2018-06-17T12:22:30.805Z,22.77
2018-06-17T12:25:01.396Z,22.88
2018-06-17T12:27:37.450Z,22.96
2018-06-17T12:30:28.867Z,22.99
2018-06-17T12:33:00.592Z,22.84
2018-06-17T12:35:34.384Z,22.73
2018-06-17T12:38:14.108Z,22.90
2018-06-17T12:40:51.879Z,23.17
2018-06-17T12:43:25.620Z,23.53
2018-06-17T12:45:58.501Z,23.83
2018-06-17T12:48:59.834Z,23.77
2018-06-17T12:51:30.217Z,23.58
2018-06-17T12:54:15.416Z,23.90
2018-06-17T12:56:49.412Z,23.53
2018-06-17T12:59:22.438Z,23.47
2018-06-17T13:01:53.434Z,23.54
2018-06-17T13:06:50.528Z,24.01
2018-06-17T13:09:24.274Z,24.09
2018-06-17T13:11:56.845Z,24.21
2018-06-17T13:14:27.133Z,24.60
2018-06-17T13:16:59.302Z,24.65
2018-06-17T13:19:32.526Z,24.32
2018-06-17T13:22:05.525Z,24.27
2018-06-17T13:24:39.222Z,24.32
2018-06-17T13:27:11.058Z,24.48
2018-06-17T13:29:42.631Z,24.54
2018-06-17T13:32:16.014Z,24.63
2018-06-17T13:34:49.158Z,24.75
2018-06-17T13:37:23.234Z,24.60
2018-06-17T13:39:56.643Z,24.51
2018-06-17T13:42:27.386Z,24.73
2018-06-17T13:44:59.862Z,24.74
2018-06-17T13:47:38.646Z,24.67
2018-06-17T13:50:11.602Z,24.12
2018-06-17T13:52:56.432Z,23.97
2018-06-17T13:55:28.515Z,23.62
2018-06-17T13:58:04.517Z,23.45
2018-06-17T14:00:52.635Z,23.18
2018-06-17T14:03:27.354Z,23.33
2018-06-17T14:06:23.473Z,23.32
2018-06-17T14:08:55.441Z,23.34
2018-06-17T14:11:27.303Z,22.96
2018-06-17T14:14:03.351Z,23.01
2018-06-17T14:16:39.418Z,22.99
2018-06-17T14:19:16.178Z,23.28
2018-06-17T14:21:49.562Z,23.25
2018-06-17T14:24:20.535Z,22.86
2018-06-17T14:26:51.504Z,22.83
2018-06-17T14:29:23.698Z,22.74
2018-06-17T14:31:59.820Z,22.70
2018-06-17T14:34:35.585Z,22.75
2018-06-17T14:37:07.882Z,22.95
2018-06-17T14:39:40.721Z,23.30
2018-06-17T14:42:16.377Z,23.09
2018-06-17T14:45:03.358Z,23.11
2018-06-17T14:47:40.399Z,22.75
2018-06-17T14:50:19.506Z,22.86
2018-06-17T14:52:59.216Z,22.65
2018-06-17T14:55:40.556Z,22.62
2018-06-17T14:58:34.740Z,22.57
2018-06-17T15:01:08.178Z,22.78
2018-06-17T15:03:42.432Z,23.08
2018-06-17T15:06:14.069Z,23.16
2018-06-17T15:08:49.715Z,22.91
2018-06-17T15:11:22.900Z,22.69
2018-06-17T15:13:55.781Z,22.79
2018-06-17T15:16:30.010Z,22.75
2018-06-17T15:19:11.518Z,22.88
2018-06-17T15:21:43.008Z,22.97
2018-06-17T15:24:16.267Z,22.99
2018-06-17T15:26:50.236Z,22.77
2018-06-17T15:29:21.455Z,22.80
2018-06-17T15:32:01.442Z,22.90
2018-06-17T15:34:38.390Z,22.88
2018-06-17T15:37:17.709Z,22.67
2018-06-17T15:40:02.738Z,22.70
2018-06-17T15:42:38.647Z,22.68
2018-06-17T15:45:16.325Z,22.85
2018-06-17T15:47:51.329Z,22.92
2018-06-17T15:50:27.210Z,23.04
2018-06-17T15:53:03.378Z,22.93
2018-06-17T15:58:32.326Z,23.06
2018-06-17T16:01:26.586Z,22.91
2018-06-17T16:04:06.478Z,23.14
2018-06-17T16:06:45.603Z,23.07
2018-06-17T16:09:26.634Z,22.92
2018-06-17T16:12:08.400Z,22.84
2018-06-17T16:20:52.807Z,22.60
2018-06-17T16:23:33.183Z,22.32
2018-06-17T16:26:15.670Z,22.39
2018-06-17T16:28:59.478Z,22.37
2018-06-17T16:31:38.175Z,21.82
2018-06-17T16:34:16.500Z,22.31
2018-06-17T16:37:11.849Z,22.28
2018-06-17T16:39:44.270Z,22.50
2018-06-17T16:45:07.684Z,22.27
2018-06-17T16:47:42.582Z,22.30
2018-06-17T16:50:20.290Z,22.39
2018-06-17T16:52:57.392Z,22.41
2018-06-17T16:55:38.017Z,22.60
2018-06-17T16:58:14.760Z,22.32
2018-06-17T17:00:46.527Z,22.14
2018-06-17T17:03:37.931Z,21.91
2018-06-17T17:06:11.910Z,21.99
2018-06-17T17:08:52.163Z,21.89
2018-06-17T17:11:26.210Z,21.84
2018-06-17T17:13:58.243Z,21.72
2018-06-17T17:16:31.169Z,21.84
2018-06-17T17:19:01.866Z,21.92
2018-06-17T17:21:36.045Z,22.06
2018-06-17T17:24:08.455Z,22.16
2018-06-17T17:26:46.969Z,22.10
2018-06-17T17:29:18.749Z,22.07
2018-06-17T17:32:04.696Z,22.17
2018-06-17T17:34:42.690Z,22.12
2018-06-17T17:37:18.176Z,21.95
2018-06-17T17:40:01.751Z,21.97
2018-06-17T17:42:58.763Z,21.50
2018-06-17T17:45:48.458Z,21.99
2018-06-17T17:48:24.407Z,22.02
2018-06-17T17:50:58.448Z,22.14
2018-06-17T17:53:29.866Z,22.05
2018-06-17T17:56:01.097Z,22.08
2018-06-17T17:58:34.763Z,22.14
2018-06-17T18:01:09.671Z,21.77
2018-06-17T18:03:44.459Z,21.99
2018-06-17T18:06:18.261Z,21.91
2018-06-17T18:08:52.928Z,21.96
2018-06-17T18:11:24.894Z,21.93
2018-06-17T18:13:57.417Z,22.04
2018-06-17T18:16:31.621Z,21.86
2018-06-17T18:19:04.015Z,21.78
2018-06-17T18:21:39.304Z,21.83
2018-06-17T18:29:05.984Z,21.82
2018-06-17T18:31:42.277Z,21.63
2018-06-17T18:34:21.133Z,21.59
2018-06-17T18:37:07.798Z,21.53
2018-06-17T18:39:40.941Z,21.52
2018-06-17T18:42:13.488Z,21.58
2018-06-17T18:44:53.366Z,21.59
2018-06-17T18:47:33.514Z,21.74
2018-06-17T18:50:09.436Z,21.80
2018-06-17T18:53:02.531Z,21.81
2018-06-17T18:55:35.269Z,21.78
2018-06-17T18:58:07.467Z,21.66
2018-06-17T19:00:40.145Z,21.68
2018-06-17T19:03:15.554Z,21.64
2018-06-17T19:05:57.286Z,21.56
2018-06-17T19:08:35.207Z,21.71
2018-06-17T19:11:13.364Z,21.14
2018-06-17T19:13:50.152Z,21.75
2018-06-17T19:16:27.729Z,21.77
2018-06-17T19:19:03.210Z,21.69
2018-06-17T19:21:33.630Z,21.78
2018-06-17T19:24:06.312Z,21.82
2018-06-17T19:32:42.214Z,21.68
2018-06-17T19:35:15.283Z,20.95
2018-06-17T19:37:54.752Z,21.38
2018-06-17T19:40:25.039Z,21.53
2018-06-17T19:43:13.144Z,21.54
2018-06-17T19:45:48.454Z,21.53
2018-06-17T19:48:21.982Z,21.61
2018-06-17T19:50:57.429Z,21.72
2018-06-17T19:53:41.387Z,21.63
2018-06-17T19:56:19.240Z,21.45
2018-06-17T19:58:56.624Z,21.43
2018-06-17T20:01:29.187Z,21.38
2018-06-17T20:04:05.065Z,21.34
2018-06-17T20:06:35.582Z,21.43
2018-06-17T20:09:09.063Z,21.58
2018-06-17T20:11:50.296Z,21.72
2018-06-17T20:14:26.237Z,21.67
2018-06-17T20:16:58.929Z,21.63
2018-06-17T20:19:33.478Z,21.64
2018-06-17T20:22:05.602Z,21.57
2018-06-17T20:24:38.631Z,21.59
2018-06-17T20:27:15.878Z,21.65
2018-06-17T20:29:49.086Z,21.69
2018-06-17T20:35:22.216Z,21.63
2018-06-17T20:38:04.182Z,21.45
2018-06-17T20:43:23.967Z,21.40
2018-06-17T20:45:57.257Z,21.55
2018-06-17T20:48:33.214Z,21.54
2018-06-17T20:51:06.249Z,21.51
2018-06-17T20:53:38.281Z,21.61
2018-06-17T20:56:11.741Z,21.43
2018-06-17T20:58:49.094Z,21.28
2018-06-17T21:01:24.804Z,21.16
2018-06-17T21:03:57.589Z,21.19
2018-06-17T21:06:28.445Z,21.19
2018-06-17T21:09:04.364Z,21.34
2018-06-17T21:11:54.976Z,21.52
2018-06-17T21:14:27.129Z,21.31
2018-06-17T21:17:11.363Z,21.29
2018-06-17T21:19:50.194Z,20.98
2018-06-17T21:22:28.840Z,20.85
2018-06-17T21:25:06.400Z,20.75
2018-06-17T21:27:42.965Z,20.70
2018-06-17T21:30:18.135Z,20.66
2018-06-17T21:33:01.350Z,20.73
2018-06-17T21:35:32.609Z,20.95
2018-06-17T21:38:11.005Z,21.02
2018-06-17T21:40:45.634Z,20.95
2018-06-17T21:43:19.617Z,20.95
2018-06-17T21:45:55.980Z,21.09
2018-06-17T21:48:30.551Z,21.05
2018-06-17T21:51:07.219Z,20.91
2018-06-17T21:53:38.793Z,20.62
2018-06-17T21:56:15.465Z,20.96
2018-06-17T21:58:49.400Z,21.05
2018-06-17T22:01:23.269Z,21.04
2018-06-17T22:04:11.941Z,20.96
2018-06-17T22:06:43.408Z,20.66
2018-06-17T22:09:19.770Z,20.28
2018-06-17T22:12:03.227Z,20.38
2018-06-17T22:14:38.957Z,20.52
2018-06-17T22:17:15.827Z,20.32
2018-06-17T22:19:50.363Z,20.67
2018-06-17T22:22:22.801Z,20.75
2018-06-17T22:24:54.802Z,20.77
2018-06-17T22:27:28.890Z,20.83
2018-06-17T22:32:45.889Z,20.85
2018-06-17T22:35:17.704Z,20.82
2018-06-17T22:37:49.295Z,20.73
2018-06-17T22:40:19.739Z,20.63
2018-06-17T22:42:53.166Z,20.68
2018-06-17T22:45:25.886Z,20.67
2018-06-17T22:48:00.277Z,20.78
2018-06-17T22:50:30.797Z,20.62
2018-06-17T22:55:11.529Z,20.71
2018-06-17T22:57:50.294Z,20.80
2018-06-17T23:00:28.457Z,20.78
2018-06-17T23:03:07.102Z,20.73
2018-06-17T23:05:54.772Z,20.75
2018-06-17T23:08:36.956Z,20.70
2018-06-17T23:11:11.017Z,20.62
2018-06-17T23:13:42.451Z,20.65
2018-06-17T23:16:16.442Z,20.66
2018-06-17T23:18:48.506Z,20.69
2018-06-17T23:21:19.471Z,20.68
2018-06-17T23:23:54.555Z,20.70
2018-06-17T23:26:30.275Z,20.78
2018-06-17T23:29:03.058Z,20.78
2018-06-17T23:31:35.647Z,20.69
2018-06-17T23:34:07.720Z,20.63
2018-06-17T23:36:39.949Z,20.70
2018-06-17T23:39:13.648Z,20.70
2018-06-17T23:41:44.695Z,20.62
2018-06-17T23:44:16.562Z,20.71
2018-06-17T23:46:52.285Z,20.63
2018-06-17T23:49:33.082Z,20.66
2018-06-17T23:52:10.453Z,20.71
2018-06-17T23:54:46.232Z,20.81
2018-06-17T23:57:16.979Z,20.82
2018-06-17T23:59:47.319Z,20.87
